sensor_id;sensor_type;location;lat;lon;timestamp;P1;durP1;ratioP1;P2;durP2;ratioP2
2404;SDS011;1213;43.206;27.922;2023-04-08T00:00:08;35.07;;;21.13;;
2404;SDS011;1213;43.206;27.922;2023-04-08T00:02:33;24.90;;;14.60;;
2404;SDS011;1213;43.206;27.922;2023-04-08T00:04:58;25.60;;;16.27;;
2404;SDS011;1213;43.206;27.922;2023-04-08T00:07:24;23.20;;;14.70;;
2404;SDS011;1213;43.206;27.922;2023-04-08T00:09:49;20.93;;;12.80;;
2404;SDS011;1213;43.206;27.922;2023-04-08T00:12:15;29.10;;;15.13;;
2404;SDS011;1213;43.206;27.922;2023-04-08T00:14:40;21.97;;;14.73;;
2404;SDS011;1213;43.206;27.922;2023-04-08T00:17:06;24.40;;;15.30;;
2404;SDS011;1213;43.206;27.922;2023-04-08T00:19:31;21.07;;;13.10;;
2404;SDS011;1213;43.206;27.922;2023-04-08T00:21:57;26.13;;;13.87;;
2404;SDS011;1213;43.206;27.922;2023-04-08T00:24:22;18.87;;;11.87;;
2404;SDS011;1213;43.206;27.922;2023-04-08T00:26:48;20.20;;;12.27;;
2404;SDS011;1213;43.206;27.922;2023-04-08T00:29:13;23.90;;;15.53;;
2404;SDS011;1213;43.206;27.922;2023-04-08T00:31:38;24.37;;;15.33;;
2404;SDS011;1213;43.206;27.922;2023-04-08T00:34:03;14.53;;;10.47;;
2404;SDS011;1213;43.206;27.922;2023-04-08T00:36:29;21.27;;;13.17;;
2404;SDS011;1213;43.206;27.922;2023-04-08T00:38:54;31.80;;;14.10;;
2404;SDS011;1213;43.206;27.922;2023-04-08T00:41:19;22.30;;;14.73;;
2404;SDS011;1213;43.206;27.922;2023-04-08T00:43:44;22.67;;;12.33;;
2404;SDS011;1213;43.206;27.922;2023-04-08T00:46:10;26.13;;;13.63;;
2404;SDS011;1213;43.206;27.922;2023-04-08T00:48:35;33.50;;;14.87;;
2404;SDS011;1213;43.206;27.922;2023-04-08T00:51:01;19.00;;;12.30;;
2404;SDS011;1213;43.206;27.922;2023-04-08T00:53:26;22.10;;;13.13;;
2404;SDS011;1213;43.206;27.922;2023-04-08T00:55:52;25.80;;;13.77;;
2404;SDS011;1213;43.206;27.922;2023-04-08T00:58:17;28.20;;;15.60;;
2404;SDS011;1213;43.206;27.922;2023-04-08T01:00:43;17.20;;;11.83;;
2404;SDS011;1213;43.206;27.922;2023-04-08T01:03:15;20.80;;;13.13;;
2404;SDS011;1213;43.206;27.922;2023-04-08T01:05:46;25.67;;;13.67;;
2404;SDS011;1213;43.206;27.922;2023-04-08T01:08:17;25.50;;;14.00;;
2404;SDS011;1213;43.206;27.922;2023-04-08T01:10:42;23.50;;;14.97;;
2404;SDS011;1213;43.206;27.922;2023-04-08T01:13:09;27.23;;;14.90;;
2404;SDS011;1213;43.206;27.922;2023-04-08T01:15:36;25.27;;;16.97;;
2404;SDS011;1213;43.206;27.922;2023-04-08T01:18:05;33.70;;;16.00;;
2404;SDS011;1213;43.206;27.922;2023-04-08T01:20:30;25.50;;;14.90;;
2404;SDS011;1213;43.206;27.922;2023-04-08T01:25:35;28.93;;;16.63;;
2404;SDS011;1213;43.206;27.922;2023-04-08T01:28:02;29.73;;;17.47;;
2404;SDS011;1213;43.206;27.922;2023-04-08T01:30:28;30.87;;;16.00;;
2404;SDS011;1213;43.206;27.922;2023-04-08T01:32:54;29.47;;;16.33;;
2404;SDS011;1213;43.206;27.922;2023-04-08T01:35:20;23.30;;;16.10;;
2404;SDS011;1213;43.206;27.922;2023-04-08T01:37:45;25.67;;;15.43;;
2404;SDS011;1213;43.206;27.922;2023-04-08T01:40:12;30.70;;;17.17;;
2404;SDS011;1213;43.206;27.922;2023-04-08T01:42:38;21.70;;;13.37;;
2404;SDS011;1213;43.206;27.922;2023-04-08T01:45:03;28.77;;;17.40;;
2404;SDS011;1213;43.206;27.922;2023-04-08T01:47:29;29.00;;;16.57;;
2404;SDS011;1213;43.206;27.922;2023-04-08T01:49:54;25.03;;;15.40;;
2404;SDS011;1213;43.206;27.922;2023-04-08T01:52:20;26.10;;;16.57;;
2404;SDS011;1213;43.206;27.922;2023-04-08T01:54:46;20.23;;;13.90;;
2404;SDS011;1213;43.206;27.922;2023-04-08T01:57:13;28.10;;;16.37;;
2404;SDS011;1213;43.206;27.922;2023-04-08T01:59:40;26.63;;;15.90;;
2404;SDS011;1213;43.206;27.922;2023-04-08T02:02:06;26.60;;;16.40;;
2404;SDS011;1213;43.206;27.922;2023-04-08T02:04:33;24.67;;;15.63;;
2404;SDS011;1213;43.206;27.922;2023-04-08T02:06:58;24.57;;;15.07;;
2404;SDS011;1213;43.206;27.922;2023-04-08T02:09:25;30.63;;;17.83;;
2404;SDS011;1213;43.206;27.922;2023-04-08T02:11:51;28.80;;;17.23;;
2404;SDS011;1213;43.206;27.922;2023-04-08T02:14:16;21.33;;;15.57;;
2404;SDS011;1213;43.206;27.922;2023-04-08T02:16:43;27.03;;;16.27;;
2404;SDS011;1213;43.206;27.922;2023-04-08T02:19:14;23.40;;;16.47;;
2404;SDS011;1213;43.206;27.922;2023-04-08T02:21:46;22.47;;;15.23;;
2404;SDS011;1213;43.206;27.922;2023-04-08T02:24:12;29.03;;;16.30;;
2404;SDS011;1213;43.206;27.922;2023-04-08T02:26:39;23.47;;;16.47;;
2404;SDS011;1213;43.206;27.922;2023-04-08T02:29:06;31.93;;;16.40;;
2404;SDS011;1213;43.206;27.922;2023-04-08T02:31:35;31.20;;;16.23;;
2404;SDS011;1213;43.206;27.922;2023-04-08T02:34:02;26.77;;;16.50;;
2404;SDS011;1213;43.206;27.922;2023-04-08T02:36:30;23.17;;;13.93;;
2404;SDS011;1213;43.206;27.922;2023-04-08T02:38:56;23.13;;;16.93;;
2404;SDS011;1213;43.206;27.922;2023-04-08T02:41:21;27.23;;;16.33;;
2404;SDS011;1213;43.206;27.922;2023-04-08T02:43:46;28.07;;;15.67;;
2404;SDS011;1213;43.206;27.922;2023-04-08T02:46:12;24.10;;;15.60;;
2404;SDS011;1213;43.206;27.922;2023-04-08T02:48:37;23.27;;;15.00;;
2404;SDS011;1213;43.206;27.922;2023-04-08T02:51:03;24.07;;;16.23;;
2404;SDS011;1213;43.206;27.922;2023-04-08T02:53:28;27.37;;;16.30;;
2404;SDS011;1213;43.206;27.922;2023-04-08T02:55:53;24.90;;;15.23;;
2404;SDS011;1213;43.206;27.922;2023-04-08T02:58:18;26.60;;;15.83;;
2404;SDS011;1213;43.206;27.922;2023-04-08T03:00:44;24.23;;;16.63;;
2404;SDS011;1213;43.206;27.922;2023-04-08T03:03:10;25.27;;;14.87;;
2404;SDS011;1213;43.206;27.922;2023-04-08T03:05:35;26.70;;;17.23;;
2404;SDS011;1213;43.206;27.922;2023-04-08T03:08:00;29.10;;;16.77;;
2404;SDS011;1213;43.206;27.922;2023-04-08T03:10:26;33.60;;;18.50;;
2404;SDS011;1213;43.206;27.922;2023-04-08T03:12:51;29.17;;;17.10;;
2404;SDS011;1213;43.206;27.922;2023-04-08T03:15:16;29.77;;;16.47;;
2404;SDS011;1213;43.206;27.922;2023-04-08T03:17:41;31.50;;;19.57;;
2404;SDS011;1213;43.206;27.922;2023-04-08T03:20:07;26.73;;;17.27;;
2404;SDS011;1213;43.206;27.922;2023-04-08T03:22:32;29.23;;;18.50;;
2404;SDS011;1213;43.206;27.922;2023-04-08T03:24:58;31.77;;;18.00;;
2404;SDS011;1213;43.206;27.922;2023-04-08T03:27:23;32.87;;;18.97;;
2404;SDS011;1213;43.206;27.922;2023-04-08T03:29:48;32.77;;;19.23;;
2404;SDS011;1213;43.206;27.922;2023-04-08T03:32:14;30.43;;;19.40;;
2404;SDS011;1213;43.206;27.922;2023-04-08T03:34:39;32.20;;;19.53;;
2404;SDS011;1213;43.206;27.922;2023-04-08T03:37:05;28.60;;;17.87;;
2404;SDS011;1213;43.206;27.922;2023-04-08T03:39:30;34.77;;;19.30;;
2404;SDS011;1213;43.206;27.922;2023-04-08T03:41:55;29.13;;;16.70;;
2404;SDS011;1213;43.206;27.922;2023-04-08T03:44:21;34.37;;;15.00;;
2404;SDS011;1213;43.206;27.922;2023-04-08T03:46:46;28.33;;;16.10;;
2404;SDS011;1213;43.206;27.922;2023-04-08T03:49:11;32.20;;;16.70;;
2404;SDS011;1213;43.206;27.922;2023-04-08T03:51:36;35.97;;;20.60;;
2404;SDS011;1213;43.206;27.922;2023-04-08T03:54:02;28.17;;;15.77;;
2404;SDS011;1213;43.206;27.922;2023-04-08T03:56:27;32.73;;;20.33;;
2404;SDS011;1213;43.206;27.922;2023-04-08T03:58:52;29.40;;;17.47;;
2404;SDS011;1213;43.206;27.922;2023-04-08T04:01:18;25.57;;;17.97;;
2404;SDS011;1213;43.206;27.922;2023-04-08T04:03:43;25.00;;;16.57;;
2404;SDS011;1213;43.206;27.922;2023-04-08T04:06:08;29.30;;;16.30;;
2404;SDS011;1213;43.206;27.922;2023-04-08T04:08:34;32.83;;;16.40;;
2404;SDS011;1213;43.206;27.922;2023-04-08T04:10:59;28.40;;;17.20;;
2404;SDS011;1213;43.206;27.922;2023-04-08T04:13:24;30.60;;;15.33;;
2404;SDS011;1213;43.206;27.922;2023-04-08T04:15:50;32.13;;;16.80;;
2404;SDS011;1213;43.206;27.922;2023-04-08T04:18:15;25.57;;;13.90;;
2404;SDS011;1213;43.206;27.922;2023-04-08T04:20:40;32.03;;;16.70;;
2404;SDS011;1213;43.206;27.922;2023-04-08T04:23:06;27.47;;;14.30;;
2404;SDS011;1213;43.206;27.922;2023-04-08T04:25:31;27.87;;;14.00;;
2404;SDS011;1213;43.206;27.922;2023-04-08T04:27:57;22.00;;;14.73;;
2404;SDS011;1213;43.206;27.922;2023-04-08T04:30:23;21.03;;;13.77;;
2404;SDS011;1213;43.206;27.922;2023-04-08T04:32:48;16.80;;;12.30;;
2404;SDS011;1213;43.206;27.922;2023-04-08T04:35:13;19.10;;;12.37;;
2404;SDS011;1213;43.206;27.922;2023-04-08T04:37:39;19.20;;;11.67;;
2404;SDS011;1213;43.206;27.922;2023-04-08T04:40:04;16.03;;;11.17;;
2404;SDS011;1213;43.206;27.922;2023-04-08T04:42:31;15.73;;;11.70;;
2404;SDS011;1213;43.206;27.922;2023-04-08T04:44:57;16.37;;;11.47;;
2404;SDS011;1213;43.206;27.922;2023-04-08T04:47:23;25.37;;;12.20;;
2404;SDS011;1213;43.206;27.922;2023-04-08T04:49:49;18.23;;;12.50;;
2404;SDS011;1213;43.206;27.922;2023-04-08T04:52:14;26.67;;;13.03;;
2404;SDS011;1213;43.206;27.922;2023-04-08T04:54:40;19.27;;;11.97;;
2404;SDS011;1213;43.206;27.922;2023-04-08T04:57:05;16.87;;;12.30;;
2404;SDS011;1213;43.206;27.922;2023-04-08T04:59:31;26.83;;;11.90;;
2404;SDS011;1213;43.206;27.922;2023-04-08T05:01:57;21.80;;;12.63;;
2404;SDS011;1213;43.206;27.922;2023-04-08T05:04:23;22.07;;;14.20;;
2404;SDS011;1213;43.206;27.922;2023-04-08T05:06:48;18.87;;;13.17;;
2404;SDS011;1213;43.206;27.922;2023-04-08T05:09:13;22.17;;;12.03;;
2404;SDS011;1213;43.206;27.922;2023-04-08T05:11:39;26.13;;;12.93;;
2404;SDS011;1213;43.206;27.922;2023-04-08T05:14:04;17.23;;;12.33;;
2404;SDS011;1213;43.206;27.922;2023-04-08T05:16:30;24.10;;;14.33;;
2404;SDS011;1213;43.206;27.922;2023-04-08T05:18:56;18.87;;;14.10;;
2404;SDS011;1213;43.206;27.922;2023-04-08T05:21:21;18.73;;;12.67;;
2404;SDS011;1213;43.206;27.922;2023-04-08T05:23:47;14.73;;;10.50;;
2404;SDS011;1213;43.206;27.922;2023-04-08T05:26:15;13.23;;;9.17;;
2404;SDS011;1213;43.206;27.922;2023-04-08T05:28:40;11.77;;;9.17;;
2404;SDS011;1213;43.206;27.922;2023-04-08T05:31:05;14.40;;;9.83;;
2404;SDS011;1213;43.206;27.922;2023-04-08T05:33:31;13.90;;;9.50;;
2404;SDS011;1213;43.206;27.922;2023-04-08T05:35:56;13.73;;;9.60;;
2404;SDS011;1213;43.206;27.922;2023-04-08T05:38:21;12.43;;;9.20;;
2404;SDS011;1213;43.206;27.922;2023-04-08T05:40:47;13.33;;;9.60;;
2404;SDS011;1213;43.206;27.922;2023-04-08T05:43:12;12.63;;;8.60;;
2404;SDS011;1213;43.206;27.922;2023-04-08T05:45:37;11.47;;;8.70;;
2404;SDS011;1213;43.206;27.922;2023-04-08T05:48:03;11.90;;;9.50;;
2404;SDS011;1213;43.206;27.922;2023-04-08T05:50:28;14.27;;;10.07;;
2404;SDS011;1213;43.206;27.922;2023-04-08T05:52:53;11.87;;;8.43;;
2404;SDS011;1213;43.206;27.922;2023-04-08T05:55:19;13.20;;;8.70;;
2404;SDS011;1213;43.206;27.922;2023-04-08T05:57:44;10.63;;;8.80;;
2404;SDS011;1213;43.206;27.922;2023-04-08T06:00:10;15.60;;;10.40;;
2404;SDS011;1213;43.206;27.922;2023-04-08T06:02:35;13.17;;;8.90;;
2404;SDS011;1213;43.206;27.922;2023-04-08T06:05:01;12.37;;;9.00;;
2404;SDS011;1213;43.206;27.922;2023-04-08T06:07:28;9.17;;;8.27;;
2404;SDS011;1213;43.206;27.922;2023-04-08T06:09:53;12.73;;;7.93;;
2404;SDS011;1213;43.206;27.922;2023-04-08T06:12:18;14.67;;;8.93;;
2404;SDS011;1213;43.206;27.922;2023-04-08T06:14:44;11.37;;;8.43;;
2404;SDS011;1213;43.206;27.922;2023-04-08T06:17:09;10.40;;;9.27;;
2404;SDS011;1213;43.206;27.922;2023-04-08T06:19:34;12.17;;;9.07;;
2404;SDS011;1213;43.206;27.922;2023-04-08T06:21:59;14.57;;;9.77;;
2404;SDS011;1213;43.206;27.922;2023-04-08T06:24:25;11.13;;;8.40;;
2404;SDS011;1213;43.206;27.922;2023-04-08T06:26:51;16.00;;;8.47;;
2404;SDS011;1213;43.206;27.922;2023-04-08T06:29:17;11.87;;;8.67;;
2404;SDS011;1213;43.206;27.922;2023-04-08T06:31:43;13.23;;;8.63;;
2404;SDS011;1213;43.206;27.922;2023-04-08T06:34:08;10.43;;;8.67;;
2404;SDS011;1213;43.206;27.922;2023-04-08T06:36:33;12.47;;;7.80;;
2404;SDS011;1213;43.206;27.922;2023-04-08T06:38:59;11.47;;;9.30;;
2404;SDS011;1213;43.206;27.922;2023-04-08T06:41:24;10.13;;;8.20;;
2404;SDS011;1213;43.206;27.922;2023-04-08T06:43:49;15.40;;;9.30;;
2404;SDS011;1213;43.206;27.922;2023-04-08T06:46:15;16.47;;;11.30;;
2404;SDS011;1213;43.206;27.922;2023-04-08T06:48:40;16.70;;;9.40;;
2404;SDS011;1213;43.206;27.922;2023-04-08T06:51:05;11.10;;;8.67;;
2404;SDS011;1213;43.206;27.922;2023-04-08T06:53:31;13.13;;;9.43;;
2404;SDS011;1213;43.206;27.922;2023-04-08T06:55:57;11.57;;;9.10;;
2404;SDS011;1213;43.206;27.922;2023-04-08T06:58:23;13.70;;;9.47;;
2404;SDS011;1213;43.206;27.922;2023-04-08T07:00:48;9.10;;;7.70;;
2404;SDS011;1213;43.206;27.922;2023-04-08T07:03:13;20.20;;;10.20;;
2404;SDS011;1213;43.206;27.922;2023-04-08T07:05:40;11.83;;;8.10;;
2404;SDS011;1213;43.206;27.922;2023-04-08T07:08:06;13.07;;;8.63;;
2404;SDS011;1213;43.206;27.922;2023-04-08T07:10:31;13.73;;;9.90;;
2404;SDS011;1213;43.206;27.922;2023-04-08T07:12:56;11.10;;;8.00;;
2404;SDS011;1213;43.206;27.922;2023-04-08T07:15:22;13.13;;;9.47;;
2404;SDS011;1213;43.206;27.922;2023-04-08T07:17:47;20.47;;;10.60;;
2404;SDS011;1213;43.206;27.922;2023-04-08T07:20:12;25.27;;;13.90;;
2404;SDS011;1213;43.206;27.922;2023-04-08T07:22:38;18.30;;;10.80;;
2404;SDS011;1213;43.206;27.922;2023-04-08T07:25:03;13.90;;;9.80;;
2404;SDS011;1213;43.206;27.922;2023-04-08T07:27:29;11.87;;;8.67;;
2404;SDS011;1213;43.206;27.922;2023-04-08T07:29:54;12.23;;;8.97;;
2404;SDS011;1213;43.206;27.922;2023-04-08T07:32:20;10.97;;;8.17;;
2404;SDS011;1213;43.206;27.922;2023-04-08T07:34:46;12.43;;;9.93;;
2404;SDS011;1213;43.206;27.922;2023-04-08T07:37:11;10.60;;;8.20;;
2404;SDS011;1213;43.206;27.922;2023-04-08T07:39:36;11.60;;;9.47;;
2404;SDS011;1213;43.206;27.922;2023-04-08T07:42:02;10.73;;;9.67;;
2404;SDS011;1213;43.206;27.922;2023-04-08T07:44:27;12.30;;;9.70;;
2404;SDS011;1213;43.206;27.922;2023-04-08T07:46:52;13.27;;;9.90;;
2404;SDS011;1213;43.206;27.922;2023-04-08T07:49:18;12.10;;;8.53;;
2404;SDS011;1213;43.206;27.922;2023-04-08T07:51:43;11.37;;;8.80;;
2404;SDS011;1213;43.206;27.922;2023-04-08T07:54:08;11.77;;;8.37;;
2404;SDS011;1213;43.206;27.922;2023-04-08T07:56:41;13.17;;;9.10;;
2404;SDS011;1213;43.206;27.922;2023-04-08T07:59:08;11.50;;;8.07;;
2404;SDS011;1213;43.206;27.922;2023-04-08T08:01:33;16.37;;;8.20;;
2404;SDS011;1213;43.206;27.922;2023-04-08T08:03:59;11.10;;;8.60;;
2404;SDS011;1213;43.206;27.922;2023-04-08T08:06:25;10.53;;;8.27;;
2404;SDS011;1213;43.206;27.922;2023-04-08T08:08:52;11.40;;;8.80;;
2404;SDS011;1213;43.206;27.922;2023-04-08T08:11:17;11.73;;;9.03;;
2404;SDS011;1213;43.206;27.922;2023-04-08T08:13:42;13.43;;;9.53;;
2404;SDS011;1213;43.206;27.922;2023-04-08T08:16:07;9.13;;;8.00;;
2404;SDS011;1213;43.206;27.922;2023-04-08T08:18:35;11.60;;;8.20;;
2404;SDS011;1213;43.206;27.922;2023-04-08T08:21:01;12.03;;;9.50;;
2404;SDS011;1213;43.206;27.922;2023-04-08T08:23:27;15.60;;;9.40;;
2404;SDS011;1213;43.206;27.922;2023-04-08T08:25:59;11.90;;;8.30;;
2404;SDS011;1213;43.206;27.922;2023-04-08T08:28:25;10.93;;;9.27;;
2404;SDS011;1213;43.206;27.922;2023-04-08T08:30:50;13.27;;;9.17;;
2404;SDS011;1213;43.206;27.922;2023-04-08T08:33:15;11.30;;;8.10;;
2404;SDS011;1213;43.206;27.922;2023-04-08T08:35:41;12.23;;;9.43;;
2404;SDS011;1213;43.206;27.922;2023-04-08T08:38:06;12.60;;;8.47;;
2404;SDS011;1213;43.206;27.922;2023-04-08T08:40:31;11.17;;;8.00;;
2404;SDS011;1213;43.206;27.922;2023-04-08T08:42:57;9.00;;;7.80;;
2404;SDS011;1213;43.206;27.922;2023-04-08T08:45:23;9.13;;;8.23;;
2404;SDS011;1213;43.206;27.922;2023-04-08T08:47:48;10.63;;;7.70;;
2404;SDS011;1213;43.206;27.922;2023-04-08T08:50:15;11.87;;;9.10;;
2404;SDS011;1213;43.206;27.922;2023-04-08T08:52:46;10.13;;;8.00;;
2404;SDS011;1213;43.206;27.922;2023-04-08T08:55:12;10.20;;;8.70;;
2404;SDS011;1213;43.206;27.922;2023-04-08T08:57:37;8.90;;;8.00;;
2404;SDS011;1213;43.206;27.922;2023-04-08T09:00:02;9.93;;;7.90;;
2404;SDS011;1213;43.206;27.922;2023-04-08T09:02:29;9.10;;;8.07;;
2404;SDS011;1213;43.206;27.922;2023-04-08T09:04:56;11.17;;;8.60;;
2404;SDS011;1213;43.206;27.922;2023-04-08T09:07:23;11.70;;;8.10;;
2404;SDS011;1213;43.206;27.922;2023-04-08T09:09:49;9.70;;;8.50;;
2404;SDS011;1213;43.206;27.922;2023-04-08T09:12:14;10.87;;;7.80;;
2404;SDS011;1213;43.206;27.922;2023-04-08T09:14:40;6.77;;;5.77;;
2404;SDS011;1213;43.206;27.922;2023-04-08T09:17:05;11.53;;;7.23;;
2404;SDS011;1213;43.206;27.922;2023-04-08T09:19:30;6.77;;;6.00;;
2404;SDS011;1213;43.206;27.922;2023-04-08T09:22:05;6.50;;;5.50;;
2404;SDS011;1213;43.206;27.922;2023-04-08T09:24:31;7.87;;;5.43;;
2404;SDS011;1213;43.206;27.922;2023-04-08T09:26:57;6.47;;;5.50;;
2404;SDS011;1213;43.206;27.922;2023-04-08T09:29:22;7.03;;;5.97;;
2404;SDS011;1213;43.206;27.922;2023-04-08T09:31:52;5.90;;;5.40;;
2404;SDS011;1213;43.206;27.922;2023-04-08T09:34:17;8.00;;;5.97;;
2404;SDS011;1213;43.206;27.922;2023-04-08T09:36:47;6.10;;;5.23;;
2404;SDS011;1213;43.206;27.922;2023-04-08T09:39:13;12.03;;;5.90;;
2404;SDS011;1213;43.206;27.922;2023-04-08T09:41:38;10.57;;;6.30;;
2404;SDS011;1213;43.206;27.922;2023-04-08T09:44:05;7.90;;;5.37;;
2404;SDS011;1213;43.206;27.922;2023-04-08T09:49:26;5.83;;;5.13;;
2404;SDS011;1213;43.206;27.922;2023-04-08T09:54:30;7.27;;;5.83;;
2404;SDS011;1213;43.206;27.922;2023-04-08T09:57:00;5.23;;;4.80;;
2404;SDS011;1213;43.206;27.922;2023-04-08T09:59:29;9.20;;;5.90;;
2404;SDS011;1213;43.206;27.922;2023-04-08T10:01:55;6.17;;;5.57;;
2404;SDS011;1213;43.206;27.922;2023-04-08T10:04:22;7.17;;;6.40;;
2404;SDS011;1213;43.206;27.922;2023-04-08T10:06:52;5.77;;;4.80;;
2404;SDS011;1213;43.206;27.922;2023-04-08T10:09:19;7.23;;;5.40;;
2404;SDS011;1213;43.206;27.922;2023-04-08T10:11:45;5.67;;;4.70;;
2404;SDS011;1213;43.206;27.922;2023-04-08T10:14:10;5.30;;;4.80;;
2404;SDS011;1213;43.206;27.922;2023-04-08T10:16:36;8.03;;;4.90;;
2404;SDS011;1213;43.206;27.922;2023-04-08T10:19:02;6.70;;;5.03;;
2404;SDS011;1213;43.206;27.922;2023-04-08T10:21:47;7.53;;;4.90;;
2404;SDS011;1213;43.206;27.922;2023-04-08T10:24:14;6.03;;;4.93;;
2404;SDS011;1213;43.206;27.922;2023-04-08T10:26:42;6.13;;;5.53;;
2404;SDS011;1213;43.206;27.922;2023-04-08T10:31:42;8.67;;;5.00;;
2404;SDS011;1213;43.206;27.922;2023-04-08T10:34:15;8.20;;;7.07;;
2404;SDS011;1213;43.206;27.922;2023-04-08T10:36:41;7.00;;;5.20;;
2404;SDS011;1213;43.206;27.922;2023-04-08T10:39:07;6.50;;;5.67;;
2404;SDS011;1213;43.206;27.922;2023-04-08T10:41:33;6.70;;;6.07;;
2404;SDS011;1213;43.206;27.922;2023-04-08T10:44:03;5.20;;;4.70;;
2404;SDS011;1213;43.206;27.922;2023-04-08T10:46:36;5.37;;;4.87;;
2404;SDS011;1213;43.206;27.922;2023-04-08T10:49:01;6.73;;;5.70;;
2404;SDS011;1213;43.206;27.922;2023-04-08T10:51:29;8.37;;;5.17;;
2404;SDS011;1213;43.206;27.922;2023-04-08T10:53:56;5.90;;;4.80;;
2404;SDS011;1213;43.206;27.922;2023-04-08T10:56:29;5.20;;;4.67;;
2404;SDS011;1213;43.206;27.922;2023-04-08T10:58:54;6.17;;;5.30;;
2404;SDS011;1213;43.206;27.922;2023-04-08T11:01:23;8.83;;;7.20;;
2404;SDS011;1213;43.206;27.922;2023-04-08T11:03:49;5.93;;;5.00;;
2404;SDS011;1213;43.206;27.922;2023-04-08T11:06:15;6.73;;;6.03;;
2404;SDS011;1213;43.206;27.922;2023-04-08T11:08:42;5.60;;;5.10;;
2404;SDS011;1213;43.206;27.922;2023-04-08T11:11:08;6.83;;;4.73;;
2404;SDS011;1213;43.206;27.922;2023-04-08T11:13:38;4.80;;;4.37;;
2404;SDS011;1213;43.206;27.922;2023-04-08T11:16:05;5.33;;;4.83;;
2404;SDS011;1213;43.206;27.922;2023-04-08T11:18:39;6.27;;;5.40;;
2404;SDS011;1213;43.206;27.922;2023-04-08T11:21:09;7.10;;;5.40;;
2404;SDS011;1213;43.206;27.922;2023-04-08T11:23:36;5.73;;;5.20;;
2404;SDS011;1213;43.206;27.922;2023-04-08T11:26:02;5.47;;;4.97;;
2404;SDS011;1213;43.206;27.922;2023-04-08T11:28:29;7.57;;;5.77;;
2404;SDS011;1213;43.206;27.922;2023-04-08T11:30:55;5.97;;;5.13;;
2404;SDS011;1213;43.206;27.922;2023-04-08T11:33:23;4.90;;;4.50;;
2404;SDS011;1213;43.206;27.922;2023-04-08T11:35:49;4.73;;;4.27;;
2404;SDS011;1213;43.206;27.922;2023-04-08T11:38:15;5.27;;;4.77;;
2404;SDS011;1213;43.206;27.922;2023-04-08T11:40:40;4.73;;;4.33;;
2404;SDS011;1213;43.206;27.922;2023-04-08T11:43:16;4.20;;;3.90;;
2404;SDS011;1213;43.206;27.922;2023-04-08T11:45:42;4.80;;;4.40;;
2404;SDS011;1213;43.206;27.922;2023-04-08T11:48:09;5.27;;;4.20;;
2404;SDS011;1213;43.206;27.922;2023-04-08T11:50:35;5.17;;;4.20;;
2404;SDS011;1213;43.206;27.922;2023-04-08T11:53:00;4.60;;;4.20;;
2404;SDS011;1213;43.206;27.922;2023-04-08T11:57:51;4.80;;;4.40;;
2404;SDS011;1213;43.206;27.922;2023-04-08T12:00:17;4.90;;;4.40;;
2404;SDS011;1213;43.206;27.922;2023-04-08T12:02:45;5.17;;;4.37;;
2404;SDS011;1213;43.206;27.922;2023-04-08T12:05:12;4.87;;;4.20;;
2404;SDS011;1213;43.206;27.922;2023-04-08T12:07:38;7.73;;;4.60;;
2404;SDS011;1213;43.206;27.922;2023-04-08T12:10:03;4.97;;;4.23;;
2404;SDS011;1213;43.206;27.922;2023-04-08T12:12:30;4.33;;;3.70;;
2404;SDS011;1213;43.206;27.922;2023-04-08T12:14:55;9.27;;;7.87;;
2404;SDS011;1213;43.206;27.922;2023-04-08T12:17:20;6.13;;;4.70;;
2404;SDS011;1213;43.206;27.922;2023-04-08T12:19:45;4.67;;;4.27;;
2404;SDS011;1213;43.206;27.922;2023-04-08T12:22:11;5.17;;;4.70;;
2404;SDS011;1213;43.206;27.922;2023-04-08T12:24:36;4.97;;;4.57;;
2404;SDS011;1213;43.206;27.922;2023-04-08T12:27:01;5.27;;;4.50;;
2404;SDS011;1213;43.206;27.922;2023-04-08T12:29:28;7.30;;;4.33;;
2404;SDS011;1213;43.206;27.922;2023-04-08T12:31:54;5.13;;;4.63;;
2404;SDS011;1213;43.206;27.922;2023-04-08T12:34:19;4.57;;;4.17;;
2404;SDS011;1213;43.206;27.922;2023-04-08T12:36:45;4.67;;;4.27;;
2404;SDS011;1213;43.206;27.922;2023-04-08T12:39:11;4.93;;;4.50;;
2404;SDS011;1213;43.206;27.922;2023-04-08T12:41:36;5.20;;;4.77;;
2404;SDS011;1213;43.206;27.922;2023-04-08T12:44:02;6.20;;;4.67;;
2404;SDS011;1213;43.206;27.922;2023-04-08T12:46:27;4.50;;;4.17;;
2404;SDS011;1213;43.206;27.922;2023-04-08T12:48:53;4.83;;;4.00;;
2404;SDS011;1213;43.206;27.922;2023-04-08T12:51:18;5.23;;;4.60;;
2404;SDS011;1213;43.206;27.922;2023-04-08T12:53:43;4.77;;;4.37;;
2404;SDS011;1213;43.206;27.922;2023-04-08T12:56:08;4.70;;;4.30;;
2404;SDS011;1213;43.206;27.922;2023-04-08T12:58:34;6.97;;;4.70;;
2404;SDS011;1213;43.206;27.922;2023-04-08T13:00:59;4.73;;;4.33;;
2404;SDS011;1213;43.206;27.922;2023-04-08T13:03:25;4.80;;;4.37;;
2404;SDS011;1213;43.206;27.922;2023-04-08T13:05:52;5.63;;;4.30;;
2404;SDS011;1213;43.206;27.922;2023-04-08T13:08:17;6.30;;;4.77;;
2404;SDS011;1213;43.206;27.922;2023-04-08T13:10:43;9.53;;;4.13;;
2404;SDS011;1213;43.206;27.922;2023-04-08T13:13:08;5.73;;;4.50;;
2404;SDS011;1213;43.206;27.922;2023-04-08T13:15:33;4.87;;;4.47;;
2404;SDS011;1213;43.206;27.922;2023-04-08T13:17:59;4.70;;;4.10;;
2404;SDS011;1213;43.206;27.922;2023-04-08T13:20:24;5.43;;;4.40;;
2404;SDS011;1213;43.206;27.922;2023-04-08T13:22:51;4.40;;;4.07;;
2404;SDS011;1213;43.206;27.922;2023-04-08T13:25:16;4.73;;;4.27;;
2404;SDS011;1213;43.206;27.922;2023-04-08T13:27:42;5.07;;;4.33;;
2404;SDS011;1213;43.206;27.922;2023-04-08T13:30:07;9.80;;;3.97;;
2404;SDS011;1213;43.206;27.922;2023-04-08T13:32:33;4.83;;;3.90;;
2404;SDS011;1213;43.206;27.922;2023-04-08T13:34:58;7.23;;;4.90;;
2404;SDS011;1213;43.206;27.922;2023-04-08T13:37:23;4.40;;;3.90;;
2404;SDS011;1213;43.206;27.922;2023-04-08T13:39:48;5.33;;;4.47;;
2404;SDS011;1213;43.206;27.922;2023-04-08T13:42:15;4.93;;;3.77;;
2404;SDS011;1213;43.206;27.922;2023-04-08T13:44:40;11.83;;;6.00;;
2404;SDS011;1213;43.206;27.922;2023-04-08T13:47:06;4.90;;;3.80;;
2404;SDS011;1213;43.206;27.922;2023-04-08T13:49:31;5.30;;;4.30;;
2404;SDS011;1213;43.206;27.922;2023-04-08T13:51:57;6.30;;;4.50;;
2404;SDS011;1213;43.206;27.922;2023-04-08T13:54:23;4.20;;;3.90;;
2404;SDS011;1213;43.206;27.922;2023-04-08T13:56:48;10.20;;;4.80;;
2404;SDS011;1213;43.206;27.922;2023-04-08T13:59:14;8.77;;;6.80;;
2404;SDS011;1213;43.206;27.922;2023-04-08T14:01:39;4.47;;;4.00;;
2404;SDS011;1213;43.206;27.922;2023-04-08T14:04:05;3.30;;;3.00;;
2404;SDS011;1213;43.206;27.922;2023-04-08T14:06:31;9.53;;;5.77;;
2404;SDS011;1213;43.206;27.922;2023-04-08T14:08:57;9.70;;;6.03;;
2404;SDS011;1213;43.206;27.922;2023-04-08T14:11:22;7.00;;;5.87;;
2404;SDS011;1213;43.206;27.922;2023-04-08T14:13:48;11.03;;;5.60;;
2404;SDS011;1213;43.206;27.922;2023-04-08T14:16:13;6.27;;;3.20;;
2404;SDS011;1213;43.206;27.922;2023-04-08T14:18:39;4.80;;;3.37;;
2404;SDS011;1213;43.206;27.922;2023-04-08T14:21:04;7.77;;;4.73;;
2404;SDS011;1213;43.206;27.922;2023-04-08T14:23:31;4.80;;;4.20;;
2404;SDS011;1213;43.206;27.922;2023-04-08T14:25:56;4.70;;;4.00;;
2404;SDS011;1213;43.206;27.922;2023-04-08T14:28:25;5.67;;;4.30;;
2404;SDS011;1213;43.206;27.922;2023-04-08T14:30:50;5.07;;;3.00;;
2404;SDS011;1213;43.206;27.922;2023-04-08T14:33:16;4.93;;;2.60;;
2404;SDS011;1213;43.206;27.922;2023-04-08T14:35:41;3.23;;;2.90;;
2404;SDS011;1213;43.206;27.922;2023-04-08T14:38:07;2.70;;;2.50;;
2404;SDS011;1213;43.206;27.922;2023-04-08T14:40:32;3.53;;;3.20;;
2404;SDS011;1213;43.206;27.922;2023-04-08T14:42:57;3.40;;;2.50;;
2404;SDS011;1213;43.206;27.922;2023-04-08T14:45:22;3.50;;;3.17;;
2404;SDS011;1213;43.206;27.922;2023-04-08T14:47:48;3.50;;;3.20;;
2404;SDS011;1213;43.206;27.922;2023-04-08T14:50:13;2.60;;;2.40;;
2404;SDS011;1213;43.206;27.922;2023-04-08T14:52:38;3.17;;;2.87;;